sensor_id;sensor_type;location;lat;lon;timestamp;P1;durP1;ratioP1;P2;durP2;ratioP2
801;SDS011;383;48.766;9.270;2023-05-17T00:00:53;7.38;;;1.95;;
801;SDS011;383;48.766;9.270;2023-05-17T00:03:20;2.65;;;2.10;;
801;SDS011;383;48.766;9.270;2023-05-17T00:05:46;6.07;;;2.28;;
801;SDS011;383;48.766;9.270;2023-05-17T00:08:13;4.82;;;2.30;;
801;SDS011;383;48.766;9.270;2023-05-17T00:10:40;27.90;;;3.10;;
801;SDS011;383;48.766;9.270;2023-05-17T00:13:08;8.75;;;2.83;;
801;SDS011;383;48.766;9.270;2023-05-17T00:15:35;5.60;;;2.63;;
801;SDS011;383;48.766;9.270;2023-05-17T00:18:02;4.45;;;2.10;;
801;SDS011;383;48.766;9.270;2023-05-17T00:20:28;2.80;;;2.22;;
801;SDS011;383;48.766;9.270;2023-05-17T00:22:55;5.07;;;2.40;;
801;SDS011;383;48.766;9.270;2023-05-17T00:25:22;3.50;;;2.42;;
801;SDS011;383;48.766;9.270;2023-05-17T00:27:48;15.25;;;2.80;;
801;SDS011;383;48.766;9.270;2023-05-17T00:30:17;5.93;;;2.20;;
801;SDS011;383;48.766;9.270;2023-05-17T00:32:43;9.98;;;3.20;;
801;SDS011;383;48.766;9.270;2023-05-17T00:35:11;4.88;;;2.15;;
801;SDS011;383;48.766;9.270;2023-05-17T00:37:38;1.98;;;1.88;;
801;SDS011;383;48.766;9.270;2023-05-17T00:40:05;5.35;;;2.40;;
801;SDS011;383;48.766;9.270;2023-05-17T00:42:32;5.63;;;2.50;;
801;SDS011;383;48.766;9.270;2023-05-17T00:44:59;4.55;;;2.03;;
801;SDS011;383;48.766;9.270;2023-05-17T00:47:27;5.85;;;2.60;;
801;SDS011;383;48.766;9.270;2023-05-17T00:49:53;8.63;;;2.85;;
801;SDS011;383;48.766;9.270;2023-05-17T00:52:20;5.13;;;2.10;;
801;SDS011;383;48.766;9.270;2023-05-17T00:54:47;6.60;;;2.22;;
801;SDS011;383;48.766;9.270;2023-05-17T00:57:16;9.70;;;2.33;;
801;SDS011;383;48.766;9.270;2023-05-17T00:59:43;9.25;;;2.25;;
801;SDS011;383;48.766;9.270;2023-05-17T01:02:10;4.65;;;2.63;;
801;SDS011;383;48.766;9.270;2023-05-17T01:04:38;4.07;;;2.30;;
801;SDS011;383;48.766;9.270;2023-05-17T01:07:06;4.68;;;2.17;;
801;SDS011;383;48.766;9.270;2023-05-17T01:09:33;2.80;;;1.70;;
801;SDS011;383;48.766;9.270;2023-05-17T01:12:02;4.43;;;2.47;;
801;SDS011;383;48.766;9.270;2023-05-17T01:14:37;2.35;;;2.20;;
801;SDS011;383;48.766;9.270;2023-05-17T01:17:12;4.45;;;2.20;;
801;SDS011;383;48.766;9.270;2023-05-17T01:20:01;4.55;;;2.60;;
801;SDS011;383;48.766;9.270;2023-05-17T01:22:43;3.95;;;2.20;;
801;SDS011;383;48.766;9.270;2023-05-17T01:25:24;3.55;;;2.00;;
801;SDS011;383;48.766;9.270;2023-05-17T01:27:57;5.53;;;2.40;;
801;SDS011;383;48.766;9.270;2023-05-17T01:30:25;10.38;;;3.33;;
801;SDS011;383;48.766;9.270;2023-05-17T01:32:54;5.20;;;2.20;;
801;SDS011;383;48.766;9.270;2023-05-17T01:35:23;3.67;;;2.15;;
801;SDS011;383;48.766;9.270;2023-05-17T01:37:50;12.10;;;2.97;;
801;SDS011;383;48.766;9.270;2023-05-17T01:40:17;5.65;;;2.13;;
801;SDS011;383;48.766;9.270;2023-05-17T01:42:44;4.63;;;1.75;;
801;SDS011;383;48.766;9.270;2023-05-17T01:45:16;6.40;;;2.05;;
801;SDS011;383;48.766;9.270;2023-05-17T01:47:47;2.40;;;1.92;;
801;SDS011;383;48.766;9.270;2023-05-17T01:50:25;7.28;;;2.35;;
801;SDS011;383;48.766;9.270;2023-05-17T01:52:58;5.18;;;2.30;;
801;SDS011;383;48.766;9.270;2023-05-17T01:55:31;8.25;;;2.38;;
801;SDS011;383;48.766;9.270;2023-05-17T01:58:06;3.13;;;2.10;;
801;SDS011;383;48.766;9.270;2023-05-17T02:00:35;8.25;;;2.00;;
801;SDS011;383;48.766;9.270;2023-05-17T02:03:03;3.17;;;1.85;;
801;SDS011;383;48.766;9.270;2023-05-17T02:05:30;2.90;;;2.20;;
801;SDS011;383;48.766;9.270;2023-05-17T02:07:56;5.13;;;2.20;;
801;SDS011;383;48.766;9.270;2023-05-17T02:10:23;6.80;;;2.20;;
801;SDS011;383;48.766;9.270;2023-05-17T02:12:50;8.50;;;2.63;;
801;SDS011;383;48.766;9.270;2023-05-17T02:15:16;6.88;;;2.45;;
801;SDS011;383;48.766;9.270;2023-05-17T02:17:44;5.78;;;2.40;;
801;SDS011;383;48.766;9.270;2023-05-17T02:20:11;10.32;;;2.90;;
801;SDS011;383;48.766;9.270;2023-05-17T02:22:38;10.75;;;2.72;;
801;SDS011;383;48.766;9.270;2023-05-17T02:25:05;4.43;;;2.42;;
801;SDS011;383;48.766;9.270;2023-05-17T02:27:32;5.82;;;2.80;;
801;SDS011;383;48.766;9.270;2023-05-17T02:29:59;3.58;;;2.10;;
801;SDS011;383;48.766;9.270;2023-05-17T02:32:26;5.28;;;2.20;;
801;SDS011;383;48.766;9.270;2023-05-17T02:34:54;5.32;;;2.70;;
801;SDS011;383;48.766;9.270;2023-05-17T02:37:21;7.03;;;2.53;;
801;SDS011;383;48.766;9.270;2023-05-17T02:39:47;5.28;;;2.25;;
801;SDS011;383;48.766;9.270;2023-05-17T02:42:14;5.20;;;2.05;;
801;SDS011;383;48.766;9.270;2023-05-17T02:44:41;2.85;;;2.08;;
801;SDS011;383;48.766;9.270;2023-05-17T02:47:07;3.20;;;2.42;;
801;SDS011;383;48.766;9.270;2023-05-17T02:49:34;4.80;;;2.13;;
801;SDS011;383;48.766;9.270;2023-05-17T02:52:02;4.50;;;2.55;;
801;SDS011;383;48.766;9.270;2023-05-17T02:54:29;3.45;;;2.10;;
801;SDS011;383;48.766;9.270;2023-05-17T02:56:56;5.07;;;2.25;;
801;SDS011;383;48.766;9.270;2023-05-17T02:59:22;7.80;;;3.00;;
801;SDS011;383;48.766;9.270;2023-05-17T03:01:49;4.40;;;2.65;;
801;SDS011;383;48.766;9.270;2023-05-17T03:04:16;3.20;;;2.58;;
801;SDS011;383;48.766;9.270;2023-05-17T03:06:44;6.45;;;2.40;;
801;SDS011;383;48.766;9.270;2023-05-17T03:09:12;6.35;;;3.55;;
801;SDS011;383;48.766;9.270;2023-05-17T03:11:39;14.98;;;5.10;;
801;SDS011;383;48.766;9.270;2023-05-17T03:14:05;8.98;;;2.95;;
801;SDS011;383;48.766;9.270;2023-05-17T03:16:32;3.70;;;2.40;;
801;SDS011;383;48.766;9.270;2023-05-17T03:18:59;3.65;;;2.85;;
801;SDS011;383;48.766;9.270;2023-05-17T03:21:25;10.73;;;2.65;;
801;SDS011;383;48.766;9.270;2023-05-17T03:23:52;3.55;;;2.15;;
801;SDS011;383;48.766;9.270;2023-05-17T03:26:20;7.85;;;2.95;;
801;SDS011;383;48.766;9.270;2023-05-17T03:28:48;5.35;;;2.67;;
801;SDS011;383;48.766;9.270;2023-05-17T03:31:15;6.20;;;3.35;;
801;SDS011;383;48.766;9.270;2023-05-17T03:33:42;9.23;;;2.75;;
801;SDS011;383;48.766;9.270;2023-05-17T03:36:09;3.88;;;2.33;;
801;SDS011;383;48.766;9.270;2023-05-17T03:38:36;6.93;;;2.30;;
801;SDS011;383;48.766;9.270;2023-05-17T03:41:03;9.68;;;3.00;;
801;SDS011;383;48.766;9.270;2023-05-17T03:43:31;3.55;;;2.05;;
801;SDS011;383;48.766;9.270;2023-05-17T03:45:58;4.63;;;2.60;;
801;SDS011;383;48.766;9.270;2023-05-17T03:48:25;4.28;;;2.10;;
801;SDS011;383;48.766;9.270;2023-05-17T03:50:51;4.85;;;2.15;;
801;SDS011;383;48.766;9.270;2023-05-17T03:53:18;9.13;;;2.53;;
801;SDS011;383;48.766;9.270;2023-05-17T03:55:45;10.98;;;2.22;;
801;SDS011;383;48.766;9.270;2023-05-17T03:58:11;3.75;;;1.95;;
801;SDS011;383;48.766;9.270;2023-05-17T04:00:39;3.67;;;2.15;;
801;SDS011;383;48.766;9.270;2023-05-17T04:03:06;4.25;;;2.42;;
801;SDS011;383;48.766;9.270;2023-05-17T04:05:33;2.55;;;1.90;;
801;SDS011;383;48.766;9.270;2023-05-17T04:07:59;7.65;;;2.33;;
801;SDS011;383;48.766;9.270;2023-05-17T04:10:26;2.42;;;2.03;;
801;SDS011;383;48.766;9.270;2023-05-17T04:12:53;7.53;;;2.10;;
801;SDS011;383;48.766;9.270;2023-05-17T04:15:19;4.85;;;1.80;;
801;SDS011;383;48.766;9.270;2023-05-17T04:17:47;2.47;;;2.30;;
801;SDS011;383;48.766;9.270;2023-05-17T04:20:14;4.95;;;2.90;;
801;SDS011;383;48.766;9.270;2023-05-17T04:22:41;4.00;;;2.67;;
801;SDS011;383;48.766;9.270;2023-05-17T04:25:08;4.03;;;2.55;;
801;SDS011;383;48.766;9.270;2023-05-17T04:27:35;5.30;;;3.08;;
801;SDS011;383;48.766;9.270;2023-05-17T04:30:02;4.25;;;2.30;;
801;SDS011;383;48.766;9.270;2023-05-17T04:32:29;4.80;;;2.60;;
801;SDS011;383;48.766;9.270;2023-05-17T04:34:59;4.00;;;2.28;;
801;SDS011;383;48.766;9.270;2023-05-17T04:37:26;7.93;;;2.90;;
801;SDS011;383;48.766;9.270;2023-05-17T04:39:52;6.85;;;3.53;;
801;SDS011;383;48.766;9.270;2023-05-17T04:42:19;3.03;;;2.20;;
801;SDS011;383;48.766;9.270;2023-05-17T04:44:46;6.03;;;2.80;;
801;SDS011;383;48.766;9.270;2023-05-17T04:47:13;6.65;;;2.58;;
801;SDS011;383;48.766;9.270;2023-05-17T04:49:39;3.22;;;2.22;;
801;SDS011;383;48.766;9.270;2023-05-17T04:52:08;5.35;;;2.38;;
801;SDS011;383;48.766;9.270;2023-05-17T04:54:35;4.00;;;2.88;;
801;SDS011;383;48.766;9.270;2023-05-17T04:57:02;3.65;;;2.20;;
801;SDS011;383;48.766;9.270;2023-05-17T04:59:28;6.78;;;2.90;;
801;SDS011;383;48.766;9.270;2023-05-17T05:01:55;4.72;;;3.22;;
801;SDS011;383;48.766;9.270;2023-05-17T05:04:22;4.55;;;2.40;;
801;SDS011;383;48.766;9.270;2023-05-17T05:06:49;5.72;;;2.70;;
801;SDS011;383;48.766;9.270;2023-05-17T05:09:17;14.68;;;3.08;;
801;SDS011;383;48.766;9.270;2023-05-17T05:11:44;7.22;;;3.40;;
801;SDS011;383;48.766;9.270;2023-05-17T05:14:11;7.25;;;2.67;;
801;SDS011;383;48.766;9.270;2023-05-17T05:16:37;4.40;;;2.60;;
801;SDS011;383;48.766;9.270;2023-05-17T05:19:04;10.90;;;3.38;;
801;SDS011;383;48.766;9.270;2023-05-17T05:21:32;11.32;;;3.28;;
801;SDS011;383;48.766;9.270;2023-05-17T05:23:59;6.25;;;3.28;;
801;SDS011;383;48.766;9.270;2023-05-17T05:26:27;5.30;;;3.50;;
801;SDS011;383;48.766;9.270;2023-05-17T05:28:54;8.13;;;3.28;;
801;SDS011;383;48.766;9.270;2023-05-17T05:31:21;5.75;;;2.25;;
801;SDS011;383;48.766;9.270;2023-05-17T05:33:47;4.45;;;2.30;;
801;SDS011;383;48.766;9.270;2023-05-17T05:36:14;9.07;;;2.70;;
801;SDS011;383;48.766;9.270;2023-05-17T05:38:41;10.40;;;3.45;;
801;SDS011;383;48.766;9.270;2023-05-17T05:41:07;8.10;;;2.33;;
801;SDS011;383;48.766;9.270;2023-05-17T05:43:35;5.05;;;2.55;;
801;SDS011;383;48.766;9.270;2023-05-17T05:46:02;5.38;;;2.75;;
801;SDS011;383;48.766;9.270;2023-05-17T05:48:29;5.80;;;2.50;;
801;SDS011;383;48.766;9.270;2023-05-17T05:50:56;3.92;;;2.20;;
801;SDS011;383;48.766;9.270;2023-05-17T05:53:22;4.75;;;2.50;;
801;SDS011;383;48.766;9.270;2023-05-17T05:55:49;14.63;;;2.70;;
801;SDS011;383;48.766;9.270;2023-05-17T05:58:16;7.35;;;2.30;;
801;SDS011;383;48.766;9.270;2023-05-17T06:00:44;6.85;;;2.63;;
801;SDS011;383;48.766;9.270;2023-05-17T06:03:10;10.45;;;2.67;;
801;SDS011;383;48.766;9.270;2023-05-17T06:05:37;6.68;;;2.80;;
801;SDS011;383;48.766;9.270;2023-05-17T06:08:04;5.68;;;2.38;;
801;SDS011;383;48.766;9.270;2023-05-17T06:10:31;8.48;;;3.20;;
801;SDS011;383;48.766;9.270;2023-05-17T06:12:57;7.85;;;2.90;;
801;SDS011;383;48.766;9.270;2023-05-17T06:15:25;2.28;;;2.13;;
801;SDS011;383;48.766;9.270;2023-05-17T06:17:53;3.33;;;2.35;;
801;SDS011;383;48.766;9.270;2023-05-17T06:20:20;4.15;;;2.03;;
801;SDS011;383;48.766;9.270;2023-05-17T06:22:46;10.48;;;2.60;;
801;SDS011;383;48.766;9.270;2023-05-17T06:25:13;5.47;;;3.17;;
801;SDS011;383;48.766;9.270;2023-05-17T06:27:40;4.93;;;2.55;;
801;SDS011;383;48.766;9.270;2023-05-17T06:30:08;10.35;;;3.38;;
801;SDS011;383;48.766;9.270;2023-05-17T06:32:38;9.32;;;2.63;;
801;SDS011;383;48.766;9.270;2023-05-17T06:35:07;7.35;;;3.88;;
801;SDS011;383;48.766;9.270;2023-05-17T06:37:35;10.43;;;2.30;;
801;SDS011;383;48.766;9.270;2023-05-17T06:40:02;9.35;;;4.45;;
801;SDS011;383;48.766;9.270;2023-05-17T06:42:30;9.15;;;2.80;;
801;SDS011;383;48.766;9.270;2023-05-17T06:44:57;8.18;;;2.88;;
801;SDS011;383;48.766;9.270;2023-05-17T06:47:23;4.75;;;2.28;;
801;SDS011;383;48.766;9.270;2023-05-17T06:49:50;4.65;;;2.92;;
801;SDS011;383;48.766;9.270;2023-05-17T06:52:18;10.90;;;2.65;;
801;SDS011;383;48.766;9.270;2023-05-17T06:54:45;6.40;;;3.03;;
801;SDS011;383;48.766;9.270;2023-05-17T06:57:11;7.63;;;2.75;;
801;SDS011;383;48.766;9.270;2023-05-17T06:59:38;5.80;;;3.10;;
801;SDS011;383;48.766;9.270;2023-05-17T07:02:05;5.53;;;2.45;;
801;SDS011;383;48.766;9.270;2023-05-17T07:04:32;15.07;;;2.83;;
801;SDS011;383;48.766;9.270;2023-05-17T07:06:58;8.00;;;3.40;;
801;SDS011;383;48.766;9.270;2023-05-17T07:09:26;10.85;;;3.55;;
801;SDS011;383;48.766;9.270;2023-05-17T07:11:53;12.60;;;3.15;;
801;SDS011;383;48.766;9.270;2023-05-17T07:14:20;8.77;;;2.35;;
801;SDS011;383;48.766;9.270;2023-05-17T07:16:46;5.85;;;2.60;;
801;SDS011;383;48.766;9.270;2023-05-17T07:19:13;6.32;;;3.00;;
801;SDS011;383;48.766;9.270;2023-05-17T07:21:40;7.43;;;3.65;;
801;SDS011;383;48.766;9.270;2023-05-17T07:24:06;3.35;;;2.47;;
801;SDS011;383;48.766;9.270;2023-05-17T07:26:35;10.68;;;3.30;;
801;SDS011;383;48.766;9.270;2023-05-17T07:29:02;5.50;;;2.75;;
801;SDS011;383;48.766;9.270;2023-05-17T07:31:28;13.70;;;2.85;;
801;SDS011;383;48.766;9.270;2023-05-17T07:33:55;7.45;;;3.40;;
801;SDS011;383;48.766;9.270;2023-05-17T07:36:22;6.72;;;3.15;;
801;SDS011;383;48.766;9.270;2023-05-17T07:38:51;5.90;;;3.00;;
801;SDS011;383;48.766;9.270;2023-05-17T07:41:17;7.70;;;3.22;;
801;SDS011;383;48.766;9.270;2023-05-17T07:43:47;9.05;;;3.05;;
801;SDS011;383;48.766;9.270;2023-05-17T07:46:14;9.32;;;3.40;;
801;SDS011;383;48.766;9.270;2023-05-17T07:48:41;8.82;;;3.17;;
801;SDS011;383;48.766;9.270;2023-05-17T07:51:08;10.00;;;3.60;;
801;SDS011;383;48.766;9.270;2023-05-17T07:53:35;15.05;;;3.70;;
801;SDS011;383;48.766;9.270;2023-05-17T07:56:01;9.50;;;3.30;;
801;SDS011;383;48.766;9.270;2023-05-17T07:58:28;8.77;;;3.42;;
801;SDS011;383;48.766;9.270;2023-05-17T08:00:57;10.40;;;3.63;;
801;SDS011;383;48.766;9.270;2023-05-17T08:03:24;8.73;;;3.00;;
801;SDS011;383;48.766;9.270;2023-05-17T08:05:52;11.07;;;3.78;;
801;SDS011;383;48.766;9.270;2023-05-17T08:08:19;6.40;;;3.70;;
801;SDS011;383;48.766;9.270;2023-05-17T08:10:46;9.37;;;3.23;;
801;SDS011;383;48.766;9.270;2023-05-17T08:13:12;7.80;;;3.67;;
801;SDS011;383;48.766;9.270;2023-05-17T08:15:39;14.50;;;4.07;;
801;SDS011;383;48.766;9.270;2023-05-17T08:18:07;7.53;;;3.10;;
801;SDS011;383;48.766;9.270;2023-05-17T08:20:34;15.13;;;2.93;;
801;SDS011;383;48.766;9.270;2023-05-17T08:23:01;12.33;;;4.37;;
801;SDS011;383;48.766;9.270;2023-05-17T08:25:28;11.87;;;3.60;;
801;SDS011;383;48.766;9.270;2023-05-17T08:27:55;9.00;;;4.00;;
801;SDS011;383;48.766;9.270;2023-05-17T08:30:21;9.90;;;3.63;;
801;SDS011;383;48.766;9.270;2023-05-17T08:32:48;10.00;;;4.83;;
801;SDS011;383;48.766;9.270;2023-05-17T08:35:16;8.87;;;3.33;;
801;SDS011;383;48.766;9.270;2023-05-17T08:37:43;16.13;;;4.47;;
801;SDS011;383;48.766;9.270;2023-05-17T08:40:09;6.10;;;3.30;;
801;SDS011;383;48.766;9.270;2023-05-17T08:42:36;7.13;;;3.13;;
801;SDS011;383;48.766;9.270;2023-05-17T08:45:04;8.30;;;3.17;;
801;SDS011;383;48.766;9.270;2023-05-17T08:47:33;10.93;;;3.80;;
801;SDS011;383;48.766;9.270;2023-05-17T08:50:01;13.00;;;3.90;;
801;SDS011;383;48.766;9.270;2023-05-17T08:52:31;13.43;;;5.27;;
801;SDS011;383;48.766;9.270;2023-05-17T08:54:58;11.53;;;4.43;;
801;SDS011;383;48.766;9.270;2023-05-17T08:57:30;9.70;;;3.80;;
801;SDS011;383;48.766;9.270;2023-05-17T08:59:58;8.07;;;4.00;;
801;SDS011;383;48.766;9.270;2023-05-17T09:02:25;6.97;;;3.47;;
801;SDS011;383;48.766;9.270;2023-05-17T09:04:53;7.93;;;3.43;;
801;SDS011;383;48.766;9.270;2023-05-17T09:07:20;6.77;;;3.00;;
801;SDS011;383;48.766;9.270;2023-05-17T09:09:50;14.43;;;4.63;;
801;SDS011;383;48.766;9.270;2023-05-17T09:12:18;13.77;;;3.70;;
801;SDS011;383;48.766;9.270;2023-05-17T09:14:44;9.47;;;3.93;;
801;SDS011;383;48.766;9.270;2023-05-17T09:17:13;6.93;;;4.00;;
801;SDS011;383;48.766;9.270;2023-05-17T09:19:44;6.13;;;3.50;;
801;SDS011;383;48.766;9.270;2023-05-17T09:22:12;12.40;;;4.20;;
801;SDS011;383;48.766;9.270;2023-05-17T09:24:40;7.13;;;3.40;;
801;SDS011;383;48.766;9.270;2023-05-17T09:27:13;9.40;;;3.60;;
801;SDS011;383;48.766;9.270;2023-05-17T09:29:40;6.43;;;3.80;;
801;SDS011;383;48.766;9.270;2023-05-17T09:32:10;6.63;;;3.33;;
801;SDS011;383;48.766;9.270;2023-05-17T09:34:38;7.43;;;3.30;;
801;SDS011;383;48.766;9.270;2023-05-17T09:37:07;9.20;;;3.27;;
801;SDS011;383;48.766;9.270;2023-05-17T09:39:38;8.33;;;3.80;;
801;SDS011;383;48.766;9.270;2023-05-17T09:42:05;9.17;;;4.10;;
801;SDS011;383;48.766;9.270;2023-05-17T09:44:45;9.43;;;3.17;;
801;SDS011;383;48.766;9.270;2023-05-17T09:47:24;8.27;;;3.53;;
801;SDS011;383;48.766;9.270;2023-05-17T09:49:52;10.33;;;4.53;;
801;SDS011;383;48.766;9.270;2023-05-17T09:52:21;6.97;;;3.47;;
801;SDS011;383;48.766;9.270;2023-05-17T09:54:51;12.10;;;3.40;;
801;SDS011;383;48.766;9.270;2023-05-17T09:57:19;8.10;;;3.80;;
801;SDS011;383;48.766;9.270;2023-05-17T09:59:48;11.30;;;3.07;;
801;SDS011;383;48.766;9.270;2023-05-17T10:02:19;14.83;;;4.17;;
801;SDS011;383;48.766;9.270;2023-05-17T10:04:48;11.23;;;3.60;;
801;SDS011;383;48.766;9.270;2023-05-17T10:07:16;9.63;;;4.17;;
801;SDS011;383;48.766;9.270;2023-05-17T10:09:45;8.37;;;3.10;;
801;SDS011;383;48.766;9.270;2023-05-17T10:12:14;8.90;;;3.20;;
801;SDS011;383;48.766;9.270;2023-05-17T10:14:44;5.07;;;3.10;;
801;SDS011;383;48.766;9.270;2023-05-17T10:17:12;7.70;;;2.70;;
801;SDS011;383;48.766;9.270;2023-05-17T10:19:40;9.53;;;2.70;;
801;SDS011;383;48.766;9.270;2023-05-17T10:22:08;11.27;;;3.50;;
801;SDS011;383;48.766;9.270;2023-05-17T10:24:36;6.23;;;2.97;;
801;SDS011;383;48.766;9.270;2023-05-17T10:27:04;8.30;;;2.87;;
801;SDS011;383;48.766;9.270;2023-05-17T10:29:32;7.27;;;3.33;;
801;SDS011;383;48.766;9.270;2023-05-17T10:32:01;8.87;;;3.27;;
801;SDS011;383;48.766;9.270;2023-05-17T10:34:33;8.60;;;2.93;;
801;SDS011;383;48.766;9.270;2023-05-17T10:37:00;8.57;;;3.20;;
801;SDS011;383;48.766;9.270;2023-05-17T10:39:28;6.03;;;2.87;;
801;SDS011;383;48.766;9.270;2023-05-17T10:41:58;10.80;;;3.47;;
801;SDS011;383;48.766;9.270;2023-05-17T10:44:28;8.23;;;3.33;;
801;SDS011;383;48.766;9.270;2023-05-17T10:46:57;7.40;;;3.67;;
801;SDS011;383;48.766;9.270;2023-05-17T10:49:25;5.53;;;3.03;;
801;SDS011;383;48.766;9.270;2023-05-17T10:51:56;7.20;;;3.23;;
801;SDS011;383;48.766;9.270;2023-05-17T10:54:32;7.30;;;3.40;;
801;SDS011;383;48.766;9.270;2023-05-17T10:57:02;7.20;;;4.00;;
801;SDS011;383;48.766;9.270;2023-05-17T10:59:30;6.00;;;3.20;;
801;SDS011;383;48.766;9.270;2023-05-17T11:01:59;6.43;;;3.03;;
801;SDS011;383;48.766;9.270;2023-05-17T11:04:30;8.00;;;3.53;;
801;SDS011;383;48.766;9.270;2023-05-17T11:09:54;8.63;;;3.70;;
801;SDS011;383;48.766;9.270;2023-05-17T11:12:30;6.97;;;3.60;;
801;SDS011;383;48.766;9.270;2023-05-17T11:15:00;9.53;;;4.57;;
801;SDS011;383;48.766;9.270;2023-05-17T11:17:33;6.43;;;2.80;;
801;SDS011;383;48.766;9.270;2023-05-17T11:20:01;5.50;;;2.93;;
801;SDS011;383;48.766;9.270;2023-05-17T11:22:36;12.10;;;4.03;;
801;SDS011;383;48.766;9.270;2023-05-17T11:25:05;11.17;;;4.87;;
801;SDS011;383;48.766;9.270;2023-05-17T11:27:35;10.93;;;3.73;;
801;SDS011;383;48.766;9.270;2023-05-17T11:30:14;11.90;;;3.80;;
801;SDS011;383;48.766;9.270;2023-05-17T11:32:45;10.40;;;4.00;;
801;SDS011;383;48.766;9.270;2023-05-17T11:35:13;10.00;;;3.57;;
801;SDS011;383;48.766;9.270;2023-05-17T11:37:42;10.40;;;3.97;;
801;SDS011;383;48.766;9.270;2023-05-17T11:40:09;9.87;;;3.23;;
801;SDS011;383;48.766;9.270;2023-05-17T11:42:38;7.90;;;3.30;;
801;SDS011;383;48.766;9.270;2023-05-17T11:45:05;26.07;;;3.87;;
801;SDS011;383;48.766;9.270;2023-05-17T11:47:33;9.57;;;4.17;;
801;SDS011;383;48.766;9.270;2023-05-17T11:50:04;9.43;;;3.17;;
801;SDS011;383;48.766;9.270;2023-05-17T11:52:32;11.07;;;3.87;;
801;SDS011;383;48.766;9.270;2023-05-17T11:55:01;10.70;;;3.37;;
801;SDS011;383;48.766;9.270;2023-05-17T11:57:30;5.40;;;2.90;;
801;SDS011;383;48.766;9.270;2023-05-17T11:59:57;8.70;;;3.20;;
801;SDS011;383;48.766;9.270;2023-05-17T12:02:25;10.23;;;4.80;;
801;SDS011;383;48.766;9.270;2023-05-17T12:04:53;6.90;;;3.10;;
801;SDS011;383;48.766;9.270;2023-05-17T12:07:20;15.10;;;3.70;;
801;SDS011;383;48.766;9.270;2023-05-17T12:09:46;5.73;;;2.60;;
801;SDS011;383;48.766;9.270;2023-05-17T12:12:15;10.40;;;3.37;;
801;SDS011;383;48.766;9.270;2023-05-17T12:14:42;10.93;;;3.87;;
801;SDS011;383;48.766;9.270;2023-05-17T12:17:09;10.93;;;3.90;;
801;SDS011;383;48.766;9.270;2023-05-17T12:19:41;13.93;;;3.37;;
801;SDS011;383;48.766;9.270;2023-05-17T12:22:09;10.13;;;2.83;;
801;SDS011;383;48.766;9.270;2023-05-17T12:24:37;9.90;;;3.53;;
801;SDS011;383;48.766;9.270;2023-05-17T12:27:05;9.10;;;3.47;;
801;SDS011;383;48.766;9.270;2023-05-17T12:29:33;7.50;;;3.00;;
801;SDS011;383;48.766;9.270;2023-05-17T12:32:00;6.97;;;3.00;;
801;SDS011;383;48.766;9.270;2023-05-17T12:34:27;5.80;;;3.17;;
801;SDS011;383;48.766;9.270;2023-05-17T12:36:54;10.13;;;3.60;;
801;SDS011;383;48.766;9.270;2023-05-17T12:39:22;7.97;;;3.30;;
801;SDS011;383;48.766;9.270;2023-05-17T12:41:49;3.87;;;2.50;;
801;SDS011;383;48.766;9.270;2023-05-17T12:44:17;5.67;;;3.20;;
801;SDS011;383;48.766;9.270;2023-05-17T12:46:46;16.60;;;4.20;;
801;SDS011;383;48.766;9.270;2023-05-17T12:49:17;9.27;;;3.50;;
801;SDS011;383;48.766;9.270;2023-05-17T12:51:46;9.90;;;3.23;;
801;SDS011;383;48.766;9.270;2023-05-17T12:54:23;11.30;;;3.30;;
801;SDS011;383;48.766;9.270;2023-05-17T12:56:51;9.03;;;4.03;;
801;SDS011;383;48.766;9.270;2023-05-17T12:59:18;7.60;;;3.33;;
801;SDS011;383;48.766;9.270;2023-05-17T13:01:50;8.23;;;3.33;;
801;SDS011;383;48.766;9.270;2023-05-17T13:04:19;9.70;;;4.03;;
801;SDS011;383;48.766;9.270;2023-05-17T13:06:53;7.70;;;3.30;;
801;SDS011;383;48.766;9.270;2023-05-17T13:09:23;10.33;;;3.10;;
801;SDS011;383;48.766;9.270;2023-05-17T13:11:52;11.90;;;3.20;;
801;SDS011;383;48.766;9.270;2023-05-17T13:14:33;8.90;;;3.47;;
801;SDS011;383;48.766;9.270;2023-05-17T13:17:05;11.40;;;3.47;;
801;SDS011;383;48.766;9.270;2023-05-17T13:19:33;7.63;;;3.63;;
801;SDS011;383;48.766;9.270;2023-05-17T13:22:01;5.67;;;3.53;;
801;SDS011;383;48.766;9.270;2023-05-17T13:24:29;10.00;;;3.90;;
801;SDS011;383;48.766;9.270;2023-05-17T13:26:56;7.53;;;3.20;;
801;SDS011;383;48.766;9.270;2023-05-17T13:29:23;9.53;;;3.57;;
801;SDS011;383;48.766;9.270;2023-05-17T13:31:49;6.10;;;3.37;;
801;SDS011;383;48.766;9.270;2023-05-17T13:34:18;23.97;;;6.00;;
801;SDS011;383;48.766;9.270;2023-05-17T13:36:45;32.67;;;5.87;;
801;SDS011;383;48.766;9.270;2023-05-17T13:39:12;14.37;;;4.50;;
801;SDS011;383;48.766;9.270;2023-05-17T13:41:38;6.63;;;3.77;;
801;SDS011;383;48.766;9.270;2023-05-17T13:44:05;7.10;;;3.77;;
801;SDS011;383;48.766;9.270;2023-05-17T13:46:32;16.30;;;5.53;;
801;SDS011;383;48.766;9.270;2023-05-17T13:48:59;10.17;;;3.70;;
801;SDS011;383;48.766;9.270;2023-05-17T13:51:27;6.87;;;3.30;;
801;SDS011;383;48.766;9.270;2023-05-17T13:53:54;19.20;;;5.30;;
801;SDS011;383;48.766;9.270;2023-05-17T13:56:21;5.50;;;2.80;;
801;SDS011;383;48.766;9.270;2023-05-17T13:58:48;16.93;;;3.50;;
801;SDS011;383;48.766;9.270;2023-05-17T14:01:14;15.63;;;4.27;;
801;SDS011;383;48.766;9.270;2023-05-17T14:03:42;11.07;;;3.73;;
801;SDS011;383;48.766;9.270;2023-05-17T14:06:09;8.10;;;3.20;;
801;SDS011;383;48.766;9.270;2023-05-17T14:08:37;11.17;;;3.30;;
801;SDS011;383;48.766;9.270;2023-05-17T14:11:04;5.97;;;3.63;;
801;SDS011;383;48.766;9.270;2023-05-17T14:13:31;7.00;;;2.83;;
801;SDS011;383;48.766;9.270;2023-05-17T14:15:57;9.47;;;4.00;;
801;SDS011;383;48.766;9.270;2023-05-17T14:18:24;9.00;;;2.90;;
801;SDS011;383;48.766;9.270;2023-05-17T14:20:51;8.67;;;3.93;;
801;SDS011;383;48.766;9.270;2023-05-17T14:23:18;9.43;;;3.90;;
801;SDS011;383;48.766;9.270;2023-05-17T14:25:46;7.90;;;3.20;;
801;SDS011;383;48.766;9.270;2023-05-17T14:28:13;10.50;;;4.50;;
801;SDS011;383;48.766;9.270;2023-05-17T14:30:41;9.93;;;3.57;;
801;SDS011;383;48.766;9.270;2023-05-17T14:33:07;8.17;;;3.57;;
801;SDS011;383;48.766;9.270;2023-05-17T14:35:34;9.80;;;3.37;;
801;SDS011;383;48.766;9.270;2023-05-17T14:38:01;7.73;;;4.13;;
801;SDS011;383;48.766;9.270;2023-05-17T14:40:27;9.57;;;3.60;;
801;SDS011;383;48.766;9.270;2023-05-17T14:42:56;6.40;;;3.70;;
801;SDS011;383;48.766;9.270;2023-05-17T14:45:23;5.43;;;3.30;;
801;SDS011;383;48.766;9.270;2023-05-17T14:47:50;8.40;;;4.00;;
801;SDS011;383;48.766;9.270;2023-05-17T14:50:16;6.23;;;3.30;;
801;SDS011;383;48.766;9.270;2023-05-17T14:52:43;6.73;;;3.47;;
801;SDS011;383;48.766;9.270;2023-05-17T14:55:10;8.67;;;3.33;;
801;SDS011;383;48.766;9.270;2023-05-17T14:57:40;4.67;;;2.93;;
801;SDS011;383;48.766;9.270;2023-05-17T15:00:09;8.47;;;3.87;;
801;SDS011;383;48.766;9.270;2023-05-17T15:02:37;7.93;;;3.30;;
801;SDS011;383;48.766;9.270;2023-05-17T15:05:04;7.90;;;3.67;;
801;SDS011;383;48.766;9.270;2023-05-17T15:07:31;6.70;;;3.40;;
801;SDS011;383;48.766;9.270;2023-05-17T15:09:58;7.80;;;3.40;;
801;SDS011;383;48.766;9.270;2023-05-17T15:12:25;8.70;;;3.37;;
801;SDS011;383;48.766;9.270;2023-05-17T15:14:52;8.50;;;3.37;;
801;SDS011;383;48.766;9.270;2023-05-17T15:17:20;5.10;;;3.20;;
801;SDS011;383;48.766;9.270;2023-05-17T15:19:47;9.00;;;4.17;;
801;SDS011;383;48.766;9.270;2023-05-17T15:22:13;9.03;;;4.07;;
801;SDS011;383;48.766;9.270;2023-05-17T15:24:41;7.83;;;3.70;;
801;SDS011;383;48.766;9.270;2023-05-17T15:27:07;11.40;;;3.03;;
801;SDS011;383;48.766;9.270;2023-05-17T15:29:36;8.60;;;3.60;;
801;SDS011;383;48.766;9.270;2023-05-17T15:32:05;12.07;;;4.23;;
801;SDS011;383;48.766;9.270;2023-05-17T15:34:33;11.43;;;4.40;;
801;SDS011;383;48.766;9.270;2023-05-17T15:37:00;6.30;;;3.30;;
801;SDS011;383;48.766;9.270;2023-05-17T15:39:27;11.23;;;3.67;;
801;SDS011;383;48.766;9.270;2023-05-17T15:41:54;6.80;;;3.50;;
801;SDS011;383;48.766;9.270;2023-05-17T15:44:20;9.57;;;4.67;;
801;SDS011;383;48.766;9.270;2023-05-17T15:46:47;7.33;;;4.10;;
801;SDS011;383;48.766;9.270;2023-05-17T15:49:14;8.63;;;4.67;;